sensor_id;sensor_type;location;lat;lon;timestamp;pressure;altitude;pressure_sealevel;temperature;humidity
3697;BME280;60662;48.810;8.872;2023-10-31T07:23:24;95475.91;;;7.90;95.13
3697;BME280;60662;48.810;8.872;2023-10-31T08:00:33;95501.56;;;8.47;94.76
3697;BME280;60662;48.810;8.872;2023-10-31T08:03:39;95509.19;;;8.66;94.25
3697;BME280;60662;48.810;8.872;2023-10-31T08:06:31;95521.59;;;8.77;93.26
3697;BME280;60662;48.810;8.872;2023-10-31T08:07:32;95521.50;;;8.78;93.39
3697;BME280;60662;48.810;8.872;2023-10-31T08:08:34;95520.50;;;8.81;93.12
3697;BME280;60662;48.810;8.872;2023-10-31T08:11:26;95513.97;;;8.74;93.08
3697;BME280;60662;48.810;8.872;2023-10-31T08:12:28;95522.94;;;8.84;93.58
3697;BME280;60662;48.810;8.872;2023-10-31T08:15:25;95518.41;;;8.88;93.22
3697;BME280;60662;48.810;8.872;2023-10-31T08:16:27;95526.78;;;8.93;92.77
3697;BME280;60662;48.810;8.872;2023-10-31T08:17:29;95521.84;;;8.88;91.52
3697;BME280;60662;48.810;8.872;2023-10-31T08:19:56;95523.28;;;8.94;91.07
3697;BME280;60662;48.810;8.872;2023-10-31T08:20:58;95528.78;;;9.04;91.13
3697;BME280;60662;48.810;8.872;2023-10-31T08:21:59;95535.28;;;8.96;91.17
3697;BME280;60662;48.810;8.872;2023-10-31T08:23:01;95530.91;;;8.97;91.23
3697;BME280;60662;48.810;8.872;2023-10-31T08:24:03;95526.59;;;8.96;90.91
3697;BME280;60662;48.810;8.872;2023-10-31T08:25:06;95529.97;;;8.98;90.54
3697;BME280;60662;48.810;8.872;2023-10-31T08:26:07;95536.44;;;9.07;91.10
3697;BME280;60662;48.810;8.872;2023-10-31T08:27:10;95537.16;;;9.09;90.26
3697;BME280;60662;48.810;8.872;2023-10-31T08:28:13;95540.44;;;9.12;90.07
3697;BME280;60662;48.810;8.872;2023-10-31T08:29:15;95527.19;;;9.17;89.95
3697;BME280;60662;48.810;8.872;2023-10-31T08:30:17;95532.03;;;9.23;89.55
3697;BME280;60662;48.810;8.872;2023-10-31T08:31:18;95536.38;;;9.23;89.56
3697;BME280;60662;48.810;8.872;2023-10-31T08:32:21;95532.09;;;9.22;88.62
3697;BME280;60662;48.810;8.872;2023-10-31T08:33:26;95523.69;;;9.32;88.76
3697;BME280;60662;48.810;8.872;2023-10-31T08:34:27;95536.72;;;9.32;88.20
3697;BME280;60662;48.810;8.872;2023-10-31T08:35:29;95526.72;;;9.41;88.14
3697;BME280;60662;48.810;8.872;2023-10-31T08:36:31;95528.09;;;9.46;87.99
3697;BME280;60662;48.810;8.872;2023-10-31T08:37:32;95529.50;;;9.52;87.33
3697;BME280;60662;48.810;8.872;2023-10-31T08:38:34;95529.16;;;9.58;87.54
3697;BME280;60662;48.810;8.872;2023-10-31T08:39:36;95532.78;;;9.56;87.18
3697;BME280;60662;48.810;8.872;2023-10-31T08:40:37;95543.41;;;9.67;87.36
3697;BME280;60662;48.810;8.872;2023-10-31T08:41:57;95543.28;;;9.54;87.43
3697;BME280;60662;48.810;8.872;2023-10-31T08:42:58;95540.59;;;9.56;87.28
3697;BME280;60662;48.810;8.872;2023-10-31T08:44:00;95540.69;;;9.54;87.53
3697;BME280;60662;48.810;8.872;2023-10-31T08:45:03;95534.81;;;9.51;87.71
3697;BME280;60662;48.810;8.872;2023-10-31T08:46:05;95542.47;;;9.54;87.30
3697;BME280;60662;48.810;8.872;2023-10-31T08:47:07;95540.25;;;9.62;87.46
3697;BME280;60662;48.810;8.872;2023-10-31T08:48:08;95542.84;;;9.62;87.50
3697;BME280;60662;48.810;8.872;2023-10-31T08:49:10;95546.88;;;9.82;87.36
3697;BME280;60662;48.810;8.872;2023-10-31T08:50:11;95548.50;;;10.13;85.41
3697;BME280;60662;48.810;8.872;2023-10-31T08:51:14;95547.97;;;10.37;84.76
3697;BME280;60662;48.810;8.872;2023-10-31T08:52:16;95543.84;;;10.62;83.66
3697;BME280;60662;48.810;8.872;2023-10-31T08:53:19;95555.22;;;10.75;82.11
3697;BME280;60662;48.810;8.872;2023-10-31T08:54:20;95551.94;;;11.14;81.25
3697;BME280;60662;48.810;8.872;2023-10-31T08:55:22;95559.81;;;11.67;79.74
3697;BME280;60662;48.810;8.872;2023-10-31T08:56:23;95556.91;;;11.84;78.33
3697;BME280;60662;48.810;8.872;2023-10-31T08:57:25;95556.66;;;11.62;78.81
3697;BME280;60662;48.810;8.872;2023-10-31T08:58:27;95558.25;;;11.24;80.62
3697;BME280;60662;48.810;8.872;2023-10-31T08:59:29;95554.84;;;10.67;81.35
3697;BME280;60662;48.810;8.872;2023-10-31T09:00:31;95560.81;;;10.55;82.67
3697;BME280;60662;48.810;8.872;2023-10-31T09:01:32;95561.66;;;10.26;83.30
3697;BME280;60662;48.810;8.872;2023-10-31T09:02:35;95550.66;;;10.21;83.89
3697;BME280;60662;48.810;8.872;2023-10-31T09:03:36;95550.09;;;10.16;83.36
3697;BME280;60662;48.810;8.872;2023-10-31T09:04:38;95552.69;;;10.30;83.67
3697;BME280;60662;48.810;8.872;2023-10-31T09:05:40;95549.34;;;10.28;83.93
3697;BME280;60662;48.810;8.872;2023-10-31T09:06:41;95561.03;;;10.52;83.48
3697;BME280;60662;48.810;8.872;2023-10-31T09:07:42;95567.06;;;10.52;81.86
3697;BME280;60662;48.810;8.872;2023-10-31T09:08:44;95563.22;;;10.72;81.59
3697;BME280;60662;48.810;8.872;2023-10-31T09:09:46;95561.16;;;10.92;80.50
3697;BME280;60662;48.810;8.872;2023-10-31T09:10:47;95559.19;;;11.23;79.79
3697;BME280;60662;48.810;8.872;2023-10-31T09:11:48;95567.09;;;11.49;79.58
3697;BME280;60662;48.810;8.872;2023-10-31T09:12:50;95559.97;;;11.91;78.60
3697;BME280;60662;48.810;8.872;2023-10-31T09:13:51;95560.31;;;12.25;76.45
3697;BME280;60662;48.810;8.872;2023-10-31T09:14:53;95558.66;;;12.24;76.09
3697;BME280;60662;48.810;8.872;2023-10-31T09:15:54;95560.81;;;12.56;75.57
3697;BME280;60662;48.810;8.872;2023-10-31T09:16:56;95556.66;;;12.90;74.32
3697;BME280;60662;48.810;8.872;2023-10-31T09:17:57;95551.75;;;13.10;74.04
3697;BME280;60662;48.810;8.872;2023-10-31T09:18:59;95552.88;;;13.67;72.26
3697;BME280;60662;48.810;8.872;2023-10-31T09:20:01;95547.53;;;13.69;69.58
3697;BME280;60662;48.810;8.872;2023-10-31T09:21:06;95551.47;;;14.33;68.09
3697;BME280;60662;48.810;8.872;2023-10-31T09:22:08;95552.88;;;14.48;67.04
3697;BME280;60662;48.810;8.872;2023-10-31T09:23:09;95546.22;;;14.44;66.45
3697;BME280;60662;48.810;8.872;2023-10-31T09:24:11;95555.41;;;14.39;66.60
3697;BME280;60662;48.810;8.872;2023-10-31T09:25:13;95552.88;;;14.60;66.65
3697;BME280;60662;48.810;8.872;2023-10-31T09:26:14;95556.13;;;14.63;66.13
3697;BME280;60662;48.810;8.872;2023-10-31T09:27:15;95556.13;;;14.63;66.13
3697;BME280;60662;48.810;8.872;2023-10-31T09:28:17;95550.84;;;15.41;64.57
3697;BME280;60662;48.810;8.872;2023-10-31T09:29:18;95555.19;;;15.31;63.54
3697;BME280;60662;48.810;8.872;2023-10-31T09:30:30;95560.31;;;15.32;63.68
3697;BME280;60662;48.810;8.872;2023-10-31T09:31:31;95554.28;;;15.86;63.59
3697;BME280;60662;48.810;8.872;2023-10-31T09:32:33;95558.69;;;15.31;63.55
3697;BME280;60662;48.810;8.872;2023-10-31T09:33:34;95546.13;;;15.35;64.59
3697;BME280;60662;48.810;8.872;2023-10-31T09:34:36;95557.06;;;15.84;63.97
3697;BME280;60662;48.810;8.872;2023-10-31T09:35:38;95555.16;;;15.75;64.06
3697;BME280;60662;48.810;8.872;2023-10-31T09:36:39;95560.22;;;15.66;62.73
3697;BME280;60662;48.810;8.872;2023-10-31T09:37:43;95564.91;;;15.30;64.15
3697;BME280;60662;48.810;8.872;2023-10-31T09:38:45;95560.34;;;15.65;63.68
3697;BME280;60662;48.810;8.872;2023-10-31T09:39:47;95558.47;;;15.12;64.96
3697;BME280;60662;48.810;8.872;2023-10-31T09:40:48;95558.63;;;14.42;68.30
3697;BME280;60662;48.810;8.872;2023-10-31T09:41:51;95562.50;;;13.55;69.33
3697;BME280;60662;48.810;8.872;2023-10-31T09:42:55;95562.50;;;12.94;71.20
3697;BME280;60662;48.810;8.872;2023-10-31T09:43:56;95566.06;;;12.56;72.42
3697;BME280;60662;48.810;8.872;2023-10-31T09:44:58;95564.41;;;12.42;73.82
3697;BME280;60662;48.810;8.872;2023-10-31T09:45:59;95569.53;;;12.18;74.72
3697;BME280;60662;48.810;8.872;2023-10-31T09:47:02;95573.88;;;11.79;75.44
3697;BME280;60662;48.810;8.872;2023-10-31T09:48:03;95570.88;;;11.57;76.60
3697;BME280;60662;48.810;8.872;2023-10-31T09:49:05;95561.22;;;11.45;76.54
3697;BME280;60662;48.810;8.872;2023-10-31T09:50:07;95569.31;;;11.55;77.77
3697;BME280;60662;48.810;8.872;2023-10-31T09:51:10;95567.75;;;11.65;77.87
3697;BME280;60662;48.810;8.872;2023-10-31T09:52:13;95565.53;;;11.59;77.80
3697;BME280;60662;48.810;8.872;2023-10-31T09:53:15;95569.31;;;11.55;77.75
3697;BME280;60662;48.810;8.872;2023-10-31T09:54:20;95572.13;;;11.52;77.93
3697;BME280;60662;48.810;8.872;2023-10-31T09:55:22;95565.78;;;11.69;78.09
3697;BME280;60662;48.810;8.872;2023-10-31T09:56:25;95572.34;;;11.62;79.40
3697;BME280;60662;48.810;8.872;2023-10-31T09:57:28;95565.22;;;11.51;78.72
3697;BME280;60662;48.810;8.872;2023-10-31T09:58:29;95571.31;;;11.24;78.26
3697;BME280;60662;48.810;8.872;2023-10-31T09:59:31;95568.28;;;11.03;78.20
3697;BME280;60662;48.810;8.872;2023-10-31T10:00:32;95561.22;;;10.90;79.59
3697;BME280;60662;48.810;8.872;2023-10-31T10:01:35;95564.16;;;10.86;79.81
3697;BME280;60662;48.810;8.872;2023-10-31T10:02:36;95563.22;;;10.72;80.18
3697;BME280;60662;48.810;8.872;2023-10-31T10:03:40;95566.50;;;10.76;80.60
3697;BME280;60662;48.810;8.872;2023-10-31T10:04:41;95556.44;;;10.70;80.47
3697;BME280;60662;48.810;8.872;2023-10-31T10:05:44;95553.91;;;10.68;81.19
3697;BME280;60662;48.810;8.872;2023-10-31T10:06:51;95564.16;;;10.71;81.25
3697;BME280;60662;48.810;8.872;2023-10-31T10:07:55;95560.44;;;10.75;81.35
3697;BME280;60662;48.810;8.872;2023-10-31T10:08:57;95560.06;;;10.67;81.21
3697;BME280;60662;48.810;8.872;2023-10-31T10:09:58;95569.19;;;10.60;81.30
3697;BME280;60662;48.810;8.872;2023-10-31T10:11:01;95566.75;;;10.71;82.43
3697;BME280;60662;48.810;8.872;2023-10-31T10:12:04;95561.25;;;10.76;82.03
3697;BME280;60662;48.810;8.872;2023-10-31T10:13:06;95557.63;;;10.78;82.53
3697;BME280;60662;48.810;8.872;2023-10-31T10:14:07;95563.28;;;10.85;82.39
3697;BME280;60662;48.810;8.872;2023-10-31T10:15:11;95565.34;;;10.80;82.13
3697;BME280;60662;48.810;8.872;2023-10-31T10:16:27;95559.97;;;10.69;82.03
3697;BME280;60662;48.810;8.872;2023-10-31T10:17:29;95555.50;;;10.71;81.92
3697;BME280;60662;48.810;8.872;2023-10-31T10:18:32;95554.75;;;10.69;82.11
3697;BME280;60662;48.810;8.872;2023-10-31T10:19:35;95558.69;;;10.61;82.20
3697;BME280;60662;48.810;8.872;2023-10-31T10:20:54;95558.38;;;10.66;82.94
3697;BME280;60662;48.810;8.872;2023-10-31T10:21:57;95559.50;;;10.62;83.27
3697;BME280;60662;48.810;8.872;2023-10-31T10:23:03;95560.28;;;10.64;83.60
3697;BME280;60662;48.810;8.872;2023-10-31T10:24:06;95567.91;;;10.67;83.41
3697;BME280;60662;48.810;8.872;2023-10-31T10:25:08;95564.53;;;10.65;83.79
3697;BME280;60662;48.810;8.872;2023-10-31T10:26:10;95570.50;;;10.67;83.97
3697;BME280;60662;48.810;8.872;2023-10-31T10:27:11;95562.47;;;10.70;83.20
3697;BME280;60662;48.810;8.872;2023-10-31T10:28:13;95571.34;;;10.68;82.11
3697;BME280;60662;48.810;8.872;2023-10-31T10:29:15;95578.88;;;10.72;82.89
3697;BME280;60662;48.810;8.872;2023-10-31T10:30:17;95563.31;;;10.71;82.75
3697;BME280;60662;48.810;8.872;2023-10-31T10:31:18;95573.94;;;10.82;82.58
3697;BME280;60662;48.810;8.872;2023-10-31T10:32:20;95577.19;;;10.86;83.34
3697;BME280;60662;48.810;8.872;2023-10-31T10:33:22;95577.47;;;10.81;82.61
3697;BME280;60662;48.810;8.872;2023-10-31T10:34:23;95571.81;;;10.74;82.17
3697;BME280;60662;48.810;8.872;2023-10-31T10:35:25;95578.25;;;10.69;82.32
3697;BME280;60662;48.810;8.872;2023-10-31T10:36:27;95571.44;;;10.66;82.40
3697;BME280;60662;48.810;8.872;2023-10-31T10:37:29;95567.41;;;10.75;82.53
3697;BME280;60662;48.810;8.872;2023-10-31T10:38:34;95570.78;;;10.77;82.45
3697;BME280;60662;48.810;8.872;2023-10-31T10:39:39;95572.81;;;10.86;82.57
3697;BME280;60662;48.810;8.872;2023-10-31T10:40:43;95578.56;;;10.91;82.99
3697;BME280;60662;48.810;8.872;2023-10-31T10:41:46;95570.31;;;11.12;81.97
3697;BME280;60662;48.810;8.872;2023-10-31T10:42:59;95577.09;;;11.15;81.94
3697;BME280;60662;48.810;8.872;2023-10-31T10:44:06;95579.03;;;11.25;81.12
3697;BME280;60662;48.810;8.872;2023-10-31T10:45:10;95585.31;;;11.23;81.24
3697;BME280;60662;48.810;8.872;2023-10-31T10:46:15;95577.53;;;11.08;81.36
3697;BME280;60662;48.810;8.872;2023-10-31T10:47:19;95578.34;;;11.09;81.10
3697;BME280;60662;48.810;8.872;2023-10-31T10:48:21;95578.06;;;11.14;81.48
3697;BME280;60662;48.810;8.872;2023-10-31T10:49:24;95578.47;;;11.07;81.56
3697;BME280;60662;48.810;8.872;2023-10-31T10:50:29;95573.13;;;11.09;81.07
3697;BME280;60662;48.810;8.872;2023-10-31T10:55:52;95574.16;;;11.06;82.29
3697;BME280;60662;48.810;8.872;2023-10-31T10:59:03;95571.69;;;11.18;82.02
3697;BME280;60662;48.810;8.872;2023-10-31T10:59:41;95576.66;;;11.22;80.98
3697;BME280;60662;48.810;8.872;2023-10-31T11:00:44;95572.63;;;11.17;80.59
3697;BME280;60662;48.810;8.872;2023-10-31T11:01:46;95565.56;;;11.04;81.20
3697;BME280;60662;48.810;8.872;2023-10-31T11:02:51;95571.16;;;11.13;81.53
3697;BME280;60662;48.810;8.872;2023-10-31T11:03:55;95577.03;;;11.16;81.39
3697;BME280;60662;48.810;8.872;2023-10-31T11:04:57;95572.28;;;11.36;80.39
3697;BME280;60662;48.810;8.872;2023-10-31T11:06:04;95569.63;;;12.16;78.33
3697;BME280;60662;48.810;8.872;2023-10-31T11:07:08;95572.63;;;12.62;76.53
3697;BME280;60662;48.810;8.872;2023-10-31T11:08:10;95570.97;;;12.48;76.73
3697;BME280;60662;48.810;8.872;2023-10-31T11:09:13;95571.53;;;12.14;76.78
3697;BME280;60662;48.810;8.872;2023-10-31T11:10:16;95572.09;;;11.92;77.63
3697;BME280;60662;48.810;8.872;2023-10-31T11:11:19;95573.66;;;11.82;78.88
3697;BME280;60662;48.810;8.872;2023-10-31T11:12:22;95576.72;;;11.88;79.19
3697;BME280;60662;48.810;8.872;2023-10-31T11:13:25;95579.34;;;11.88;79.61
3697;BME280;60662;48.810;8.872;2023-10-31T11:14:29;95582.69;;;12.03;79.15
3697;BME280;60662;48.810;8.872;2023-10-31T11:15:31;95578.25;;;11.78;78.92
3697;BME280;60662;48.810;8.872;2023-10-31T11:16:38;95569.97;;;11.71;78.76
3697;BME280;60662;48.810;8.872;2023-10-31T11:17:44;95583.25;;;11.68;79.71
3697;BME280;60662;48.810;8.872;2023-10-31T11:18:46;95574.28;;;11.72;80.55
3697;BME280;60662;48.810;8.872;2023-10-31T11:19:48;95582.34;;;11.82;79.88
3697;BME280;60662;48.810;8.872;2023-10-31T11:20:50;95578.44;;;11.62;79.14
3697;BME280;60662;48.810;8.872;2023-10-31T11:21:58;95586.38;;;11.60;79.07
3697;BME280;60662;48.810;8.872;2023-10-31T11:23:01;95578.84;;;11.69;79.56
3697;BME280;60662;48.810;8.872;2023-10-31T11:24:06;95582.88;;;11.74;79.21
3697;BME280;60662;48.810;8.872;2023-10-31T11:25:13;95580.97;;;11.76;78.85
3697;BME280;60662;48.810;8.872;2023-10-31T11:29:06;95584.09;;;11.69;79.02
3697;BME280;60662;48.810;8.872;2023-10-31T11:30:08;95588.16;;;11.73;78.39
3697;BME280;60662;48.810;8.872;2023-10-31T11:31:21;95600.03;;;11.79;77.43
3697;BME280;60662;48.810;8.872;2023-10-31T11:32:22;95590.41;;;11.92;77.50
3697;BME280;60662;48.810;8.872;2023-10-31T11:33:28;95584.34;;;11.91;76.91
3697;BME280;60662;48.810;8.872;2023-10-31T11:34:30;95597.38;;;11.66;77.22
3697;BME280;60662;48.810;8.872;2023-10-31T11:40:22;95598.53;;;11.34;79.54
3697;BME280;60662;48.810;8.872;2023-10-31T11:45:57;95609.47;;;11.26;80.22
3697;BME280;60662;48.810;8.872;2023-10-31T11:50:40;95610.91;;;11.03;79.02
3697;BME280;60662;48.810;8.872;2023-10-31T11:54:40;95612.88;;;11.14;79.68
3697;BME280;60662;48.810;8.872;2023-10-31T11:58:25;95603.94;;;11.04;79.49
3697;BME280;60662;48.810;8.872;2023-10-31T12:02:16;95605.78;;;11.02;79.91
3697;BME280;60662;48.810;8.872;2023-10-31T12:03:20;95609.59;;;11.10;79.96
3697;BME280;60662;48.810;8.872;2023-10-31T12:04:23;95609.31;;;11.15;80.04
3697;BME280;60662;48.810;8.872;2023-10-31T12:05:25;95608.28;;;11.18;79.89
3697;BME280;60662;48.810;8.872;2023-10-31T12:06:27;95613.47;;;11.32;79.67
3697;BME280;60662;48.810;8.872;2023-10-31T12:07:29;95612.69;;;11.44;79.19
3697;BME280;60662;48.810;8.872;2023-10-31T12:09:33;95613.09;;;11.51;78.78
3697;BME280;60662;48.810;8.872;2023-10-31T12:10:46;95617.34;;;11.67;79.22
3697;BME280;60662;48.810;8.872;2023-10-31T12:11:47;95613.50;;;11.72;78.87
3697;BME280;60662;48.810;8.872;2023-10-31T12:12:49;95616.00;;;11.74;78.62
3697;BME280;60662;48.810;8.872;2023-10-31T12:13:59;95623.97;;;11.72;78.67
3697;BME280;60662;48.810;8.872;2023-10-31T12:18:55;95627.94;;;11.23;80.04
3697;BME280;60662;48.810;8.872;2023-10-31T12:23:04;95628.28;;;11.04;81.51
3697;BME280;60662;48.810;8.872;2023-10-31T12:30:00;95632.38;;;11.08;81.52
3697;BME280;60662;48.810;8.872;2023-10-31T12:31:03;95638.78;;;11.17;81.96
3697;BME280;60662;48.810;8.872;2023-10-31T12:32:05;95635.50;;;11.28;81.20
3697;BME280;60662;48.810;8.872;2023-10-31T12:33:06;95629.03;;;11.34;81.47
3697;BME280;60662;48.810;8.872;2023-10-31T12:34:08;95630.63;;;11.36;81.42
3697;BME280;60662;48.810;8.872;2023-10-31T12:35:20;95630.16;;;11.44;81.29
3697;BME280;60662;48.810;8.872;2023-10-31T12:36:22;95630.38;;;11.54;81.50
3697;BME280;60662;48.810;8.872;2023-10-31T12:37:26;95632.56;;;11.47;80.44
3697;BME280;60662;48.810;8.872;2023-10-31T12:38:28;95635.28;;;11.46;80.80
3697;BME280;60662;48.810;8.872;2023-10-31T12:39:30;95641.59;;;11.56;80.87
3697;BME280;60662;48.810;8.872;2023-10-31T12:42:31;95642.66;;;11.66;80.88
3697;BME280;60662;48.810;8.872;2023-10-31T12:43:34;95642.44;;;11.69;79.79
3697;BME280;60662;48.810;8.872;2023-10-31T12:44:35;95630.13;;;12.12;78.86
3697;BME280;60662;48.810;8.872;2023-10-31T12:45:37;95634.00;;;12.19;77.63
3697;BME280;60662;48.810;8.872;2023-10-31T12:46:40;95631.31;;;12.20;77.26
3697;BME280;60662;48.810;8.872;2023-10-31T12:47:42;95646.69;;;12.25;77.94
3697;BME280;60662;48.810;8.872;2023-10-31T12:48:44;95641.97;;;12.17;77.90
3697;BME280;60662;48.810;8.872;2023-10-31T12:49:45;95639.47;;;12.41;77.38
3697;BME280;60662;48.810;8.872;2023-10-31T12:50:47;95629.09;;;12.27;76.42
3697;BME280;60662;48.810;8.872;2023-10-31T12:51:59;95632.25;;;12.19;77.09
3697;BME280;60662;48.810;8.872;2023-10-31T12:53:01;95636.31;;;12.36;76.64
3697;BME280;60662;48.810;8.872;2023-10-31T12:54:05;95637.66;;;12.16;76.90
3697;BME280;60662;48.810;8.872;2023-10-31T12:55:16;95636.41;;;12.09;76.94
3697;BME280;60662;48.810;8.872;2023-10-31T12:56:39;95637.88;;;12.00;76.64
3697;BME280;60662;48.810;8.872;2023-10-31T12:57:43;95631.59;;;12.03;77.20
3697;BME280;60662;48.810;8.872;2023-10-31T12:58:45;95643.88;;;12.28;76.81
3697;BME280;60662;48.810;8.872;2023-10-31T12:59:46;95633.06;;;12.07;77.16
3697;BME280;60662;48.810;8.872;2023-10-31T13:00:48;95627.94;;;12.05;77.18
3697;BME280;60662;48.810;8.872;2023-10-31T13:01:49;95638.06;;;11.97;77.70
3697;BME280;60662;48.810;8.872;2023-10-31T13:02:52;95630.84;;;12.01;77.19
3697;BME280;60662;48.810;8.872;2023-10-31T13:03:54;95636.31;;;12.23;77.56
3697;BME280;60662;48.810;8.872;2023-10-31T13:05:07;95637.38;;;12.34;76.45
3697;BME280;60662;48.810;8.872;2023-10-31T13:06:15;95636.09;;;12.14;76.75
3697;BME280;60662;48.810;8.872;2023-10-31T13:07:26;95631.38;;;12.06;77.19
3697;BME280;60662;48.810;8.872;2023-10-31T13:08:28;95640.03;;;11.93;77.49
3697;BME280;60662;48.810;8.872;2023-10-31T13:09:31;95634.25;;;11.88;77.81
3697;BME280;60662;48.810;8.872;2023-10-31T13:10:33;95643.69;;;11.91;76.95
3697;BME280;60662;48.810;8.872;2023-10-31T13:11:34;95638.16;;;11.96;77.25
3697;BME280;60662;48.810;8.872;2023-10-31T13:12:36;95647.88;;;11.93;78.02
3697;BME280;60662;48.810;8.872;2023-10-31T13:13:38;95646.78;;;11.83;78.06
3697;BME280;60662;48.810;8.872;2023-10-31T13:14:39;95651.28;;;11.81;77.33
3697;BME280;60662;48.810;8.872;2023-10-31T13:15:41;95647.78;;;11.68;77.53
3697;BME280;60662;48.810;8.872;2023-10-31T13:16:42;95650.50;;;11.66;77.91
3697;BME280;60662;48.810;8.872;2023-10-31T13:17:44;95653.88;;;11.68;77.67
3697;BME280;60662;48.810;8.872;2023-10-31T13:18:46;95649.84;;;11.63;77.98
3697;BME280;60662;48.810;8.872;2023-10-31T13:19:47;95650.78;;;11.62;77.65
3697;BME280;60662;48.810;8.872;2023-10-31T13:20:49;95650.75;;;11.49;78.02
3697;BME280;60662;48.810;8.872;2023-10-31T13:21:51;95661.66;;;11.55;77.99
3697;BME280;60662;48.810;8.872;2023-10-31T13:22:52;95662.28;;;11.59;78.03
3697;BME280;60662;48.810;8.872;2023-10-31T13:23:54;95660.16;;;11.51;77.63
3697;BME280;60662;48.810;8.872;2023-10-31T13:24:55;95659.63;;;11.46;78.06
3697;BME280;60662;48.810;8.872;2023-10-31T13:25:56;95661.84;;;11.52;78.85
3697;BME280;60662;48.810;8.872;2023-10-31T13:26:58;95662.00;;;11.64;78.70
3697;BME280;60662;48.810;8.872;2023-10-31T13:28:01;95664.22;;;11.70;79.05
3697;BME280;60662;48.810;8.872;2023-10-31T13:29:02;95668.06;;;11.64;78.86
3697;BME280;60662;48.810;8.872;2023-10-31T13:30:04;95668.91;;;11.65;78.55
3697;BME280;60662;48.810;8.872;2023-10-31T13:31:06;95662.34;;;11.72;79.11
3697;BME280;60662;48.810;8.872;2023-10-31T13:32:08;95673.03;;;11.82;79.31
3697;BME280;60662;48.810;8.872;2023-10-31T13:33:12;95669.63;;;11.67;78.57
3697;BME280;60662;48.810;8.872;2023-10-31T13:34:14;95667.97;;;11.66;78.96
3697;BME280;60662;48.810;8.872;2023-10-31T13:35:16;95672.66;;;11.60;78.42
3697;BME280;60662;48.810;8.872;2023-10-31T13:36:18;95672.13;;;11.55;78.84
3697;BME280;60662;48.810;8.872;2023-10-31T13:37:20;95667.63;;;11.57;78.78
3697;BME280;60662;48.810;8.872;2023-10-31T13:38:22;95669.41;;;11.57;78.92
3697;BME280;60662;48.810;8.872;2023-10-31T13:41:48;95675.41;;;11.44;79.89
3697;BME280;60662;48.810;8.872;2023-10-31T13:42:50;95676.78;;;11.50;79.32
3697;BME280;60662;48.810;8.872;2023-10-31T13:43:51;95677.09;;;11.46;78.75
3697;BME280;60662;48.810;8.872;2023-10-31T13:44:52;95680.53;;;11.46;79.67
3697;BME280;60662;48.810;8.872;2023-10-31T13:45:54;95668.91;;;11.65;79.47
3697;BME280;60662;48.810;8.872;2023-10-31T13:46:55;95680.84;;;11.69;78.73
3697;BME280;60662;48.810;8.872;2023-10-31T13:47:57;95686.81;;;11.71;78.56
3697;BME280;60662;48.810;8.872;2023-10-31T13:48:58;95676.69;;;11.79;78.12
3697;BME280;60662;48.810;8.872;2023-10-31T13:50:00;95682.97;;;11.76;77.49
3697;BME280;60662;48.810;8.872;2023-10-31T13:51:02;95681.22;;;11.77;77.22
3697;BME280;60662;48.810;8.872;2023-10-31T13:52:04;95679.03;;;11.84;78.05
3697;BME280;60662;48.810;8.872;2023-10-31T13:53:07;95684.53;;;11.79;77.33
3697;BME280;60662;48.810;8.872;2023-10-31T13:54:09;95684.28;;;11.69;77.64
3697;BME280;60662;48.810;8.872;2023-10-31T13:55:10;95682.53;;;11.70;78.32
3697;BME280;60662;48.810;8.872;2023-10-31T13:56:12;95684.22;;;11.71;78.06
3697;BME280;60662;48.810;8.872;2023-10-31T13:57:13;95686.91;;;11.69;78.07
3697;BME280;60662;48.810;8.872;2023-10-31T13:58:15;95684.59;;;11.65;77.36
3697;BME280;60662;48.810;8.872;2023-10-31T13:59:17;95692.56;;;11.63;78.05
3697;BME280;60662;48.810;8.872;2023-10-31T14:00:19;95687.59;;;11.58;78.94
3697;BME280;60662;48.810;8.872;2023-10-31T14:04:34;95700.47;;;11.34;80.15
3697;BME280;60662;48.810;8.872;2023-10-31T14:05:36;95703.19;;;11.33;79.51
3697;BME280;60662;48.810;8.872;2023-10-31T14:06:39;95699.91;;;11.29;79.68
3697;BME280;60662;48.810;8.872;2023-10-31T14:11:07;95710.66;;;11.10;80.09
3697;BME280;60662;48.810;8.872;2023-10-31T14:12:16;95711.13;;;11.17;80.08
3697;BME280;60662;48.810;8.872;2023-10-31T14:13:18;95706.72;;;11.17;80.54
3697;BME280;60662;48.810;8.872;2023-10-31T14:14:21;95711.41;;;11.12;80.81
3697;BME280;60662;48.810;8.872;2023-10-31T14:15:22;95709.91;;;11.08;80.66
3697;BME280;60662;48.810;8.872;2023-10-31T14:16:24;95709.91;;;11.08;80.20
3697;BME280;60662;48.810;8.872;2023-10-31T14:17:26;95712.91;;;11.02;80.50
3697;BME280;60662;48.810;8.872;2023-10-31T14:18:27;95709.81;;;10.95;81.20
3697;BME280;60662;48.810;8.872;2023-10-31T14:19:29;95716.06;;;10.92;82.15
3697;BME280;60662;48.810;8.872;2023-10-31T14:20:30;95704.72;;;10.93;83.94
3697;BME280;60662;48.810;8.872;2023-10-31T14:21:32;95714.22;;;10.94;84.33
3697;BME280;60662;48.810;8.872;2023-10-31T14:22:34;95712.63;;;10.92;83.78
3697;BME280;60662;48.810;8.872;2023-10-31T14:28:31;95711.78;;;10.32;89.52
3697;BME280;60662;48.810;8.872;2023-10-31T14:33:02;95731.59;;;10.20;92.60
3697;BME280;60662;48.810;8.872;2023-10-31T14:36:36;95728.22;;;10.18;94.79
3697;BME280;60662;48.810;8.872;2023-10-31T14:37:38;95729.00;;;10.51;93.03
3697;BME280;60662;48.810;8.872;2023-10-31T14:38:40;95730.72;;;10.36;93.07
3697;BME280;60662;48.810;8.872;2023-10-31T14:39:42;95731.25;;;10.26;93.72
3697;BME280;60662;48.810;8.872;2023-10-31T14:40:44;95736.84;;;10.35;95.33
3697;BME280;60662;48.810;8.872;2023-10-31T14:41:45;95734.22;;;10.35;93.90
3697;BME280;60662;48.810;8.872;2023-10-31T14:42:47;95736.69;;;11.11;92.39
3697;BME280;60662;48.810;8.872;2023-10-31T14:43:50;95733.38;;;11.51;89.50
3697;BME280;60662;48.810;8.872;2023-10-31T14:44:51;95736.88;;;11.23;90.37
3697;BME280;60662;48.810;8.872;2023-10-31T14:45:53;95737.81;;;11.07;90.58
3697;BME280;60662;48.810;8.872;2023-10-31T14:46:55;95731.47;;;11.11;91.42
3697;BME280;60662;48.810;8.872;2023-10-31T14:47:57;95736.03;;;11.08;90.63
3697;BME280;60662;48.810;8.872;2023-10-31T14:48:59;95740.81;;;11.01;91.93
3697;BME280;60662;48.810;8.872;2023-10-31T14:50:00;95734.00;;;10.99;92.72
3697;BME280;60662;48.810;8.872;2023-10-31T14:51:02;95734.00;;;10.99;92.47
3697;BME280;60662;48.810;8.872;2023-10-31T14:52:04;95729.25;;;10.91;93.68